In Rescue
 
Open Full Screen Window  High Contrast Mode
Wind Gusting 00 knots
12
April 20, 2024 8:00 AM CDT
Weather Information
Wind Direction
  300 °
Wind Speed
  12 kt (14 mph)
Wind Gust
  00 kt (0 mph)
Altimeter
30.17 in
Visibility
10 SM
Temperature
01° C
34° F
Dewpoint
-06° C
21° F
Humidity
60%
Sky Condition
Overcast @ 3,700 ft
Broken @ 3,200 ft
VFR

METAR KDYT 201300Z AUTO 30012KT 10SM BKN032 OVC037 01/M06 A3017 RMK AO2

FAA Disclaimer: The data displayed is for advisory purposes only and is not to be used for flight planning or operations.